EGNC/CAX METAR and TAF weather

Enter ICAO airport designator
Station Type Date Time Source
EGNC METAR 2019/06/20 13:50 UTC NOAA

EGNC 201350Z 26014KT 230V300 9999 VCSH SCT035TCU 16/08 Q1009


Station Type Date Time Source
EGNC Decoded METAR 2019/06/20 13:50 UTC NOAA

Carlisle, United Kingdom (EGNC) 54-56N 002-57W
Jun 20, 2019 - 09:50 AM EDT / 2019.06.20 1350 UTC
Wind: from the W (260 degrees) at 16 MPH (14 KT) (direction variable):0
Visibility: greater than 7 mile(s):0
Sky conditions: partly cloudy
Weather: showers in the vicinity; Towering cumulus clouds observed
Temperature: 60 F (16 C)
Dew Point: 46 F (8 C)
Relative Humidity: 58%
Pressure (altimeter): 29.80 in. Hg (1009 hPa)
ob: EGNC 201350Z 26014KT 230V300 9999 VCSH SCT035TCU 16/08 Q1009
cycle: 14

Station Type Date Time Source
EGNC TAF UTC NOAA

Error!

Example: see airport list